Have a Safe July 4th! 

Flight Track Log - Related Links

Times and Time Zones

All times are in EDT time to prevent confusion due to time zone crossing. See the SIA803 flight status page for this flight to view local times or setup timezone preferences in your user account.

Time Position Orientation Groundspeed Altitude Reporting Facility
EDT Latitude Longitude Course Direction KTS MPH feet Rate Location/Type
Thu 02:07:00 PM 39.7374 116.4253 200° South  Level Estimated
Thu 02:08:00 PM 39.6232 116.3726 200° South  Level Estimated
Thu 02:09:00 PM 39.5089 116.3201 200° South  Level Estimated
Thu 02:10:00 PM 39.3945 116.2677 199° South  Level Estimated
Thu 02:11:00 PM 39.2802 116.2155 199° South  Level Estimated
Thu 02:12:00 PM 39.1658 116.1635 199° South  Level Estimated
Thu 02:13:00 PM 39.0514 116.1116 199° South  Level Estimated
Thu 02:14:00 PM 38.9370 116.0599 199° South  Level Estimated
Thu 02:15:00 PM 38.8226 116.0084 199° South  Level Estimated
Thu 02:16:00 PM 38.7081 115.9570 199° South  Level Estimated
Thu 02:17:00 PM 38.5937 115.9059 199° South  Level Estimated
Thu 02:18:00 PM 38.4791 115.8548 199° South  Level Estimated
Thu 02:19:00 PM 38.3646 115.8039 199° South  Level Estimated
Thu 02:20:00 PM 38.2501 115.7532 199° South  Level Estimated
Thu 02:21:00 PM 38.1355 115.7027 199° South  Level Estimated
Thu 02:22:00 PM 38.0209 115.6523 199° South  Level Estimated
Thu 02:23:00 PM 37.9063 115.6021 199° South  Level Estimated
Thu 02:24:00 PM 37.7917 115.5520 199° South  Level Estimated
Thu 02:25:00 PM 37.6770 115.5021 199° South  Level Estimated
Thu 02:26:00 PM 37.5623 115.4523 199° South  Level Estimated
Thu 02:27:00 PM 37.4477 115.4027 199° South  Level Estimated
Thu 02:28:00 PM 37.3329 115.3532 199° South  Level Estimated
Thu 02:29:00 PM 37.2182 115.3039 199° South  Level Estimated
Thu 02:30:00 PM 37.1034 115.2547 199° South  Level Estimated
Thu 02:31:00 PM 36.9887 115.2057 199° South  Level Estimated
Thu 02:32:00 PM 36.8739 115.1569 199° South  Level Estimated
Thu 02:33:00 PM 36.7590 115.1081 199° South  Level Estimated
Thu 02:34:00 PM 36.6442 115.0595 199° South  Level Estimated
Thu 02:35:00 PM 36.5293 115.0111 199° South  Level Estimated
Thu 02:36:00 PM 36.4145 114.9628 199° South  Level Estimated
Thu 02:37:00 PM 36.2996 114.9147 199° South  Level Estimated
Thu 02:38:00 PM 36.1847 114.8667 199° South  Level Estimated
Thu 02:39:00 PM 36.0697 114.8188 199° South  Level Estimated
Thu 02:40:00 PM 35.9548 114.7711 199° South  Level Estimated
Thu 02:41:00 PM 35.8398 114.7235 199° South  Level Estimated
Thu 02:42:00 PM 35.7248 114.6761 199° South  Level Estimated
Thu 02:43:00 PM 35.6098 114.6288 198° South  Level Estimated
Thu 02:44:00 PM 35.4948 114.5816 198° South  Level Estimated
Thu 02:45:00 PM 35.3797 114.5346 198° South  Level Estimated
Thu 02:46:00 PM 35.2646 114.4876 198° South  Level Estimated
Thu 02:47:00 PM 35.1496 114.4409 198° South  Level Estimated
Thu 02:48:00 PM 35.0345 114.3942 198° South  Level Estimated
Thu 02:49:00 PM 34.9193 114.3477 198° South  Level Estimated
Thu 02:50:00 PM 34.8042 114.3014 198° South  Level Estimated
Thu 02:51:00 PM 34.6891 114.2551 198° South  Level Estimated
Thu 02:52:00 PM 34.5739 114.2090 198° South  Level Estimated
Thu 02:53:00 PM 34.4587 114.1630 198° South  Level Estimated
Thu 02:54:00 PM 34.3435 114.1171 198° South  Level Estimated
Thu 02:55:00 PM 34.2283 114.0714 198° South  Level Estimated
Thu 02:56:00 PM 34.1130 114.0258 198° South  Level Estimated
Thu 02:57:00 PM 33.9978 113.9803 198° South  Level Estimated
Thu 02:58:00 PM 33.8825 113.9349 198° South  Level Estimated
Thu 02:59:00 PM 33.7672 113.8897 198° South  Level Estimated
Thu 03:00:00 PM 33.6519 113.8445 198° South  Level Estimated
Thu 03:01:00 PM 33.5366 113.7995 198° South  Level Estimated
Thu 03:02:00 PM 33.4212 113.7547 198° South  Level Estimated
Thu 03:03:00 PM 33.3059 113.7099 198° South  Level Estimated
Thu 03:04:00 PM 33.1905 113.6653 198° South  Level Estimated
Thu 03:05:00 PM 33.0751 113.6207 198° South  Level Estimated
Thu 03:06:00 PM 32.9597 113.5763 198° South  Level Estimated
Thu 03:07:00 PM 32.8443 113.5320 198° South  Level Estimated
Thu 03:08:00 PM 32.7289 113.4878 198° South  Level Estimated
Thu 03:09:00 PM 32.6134 113.4438 198° South  Level Estimated
Thu 03:10:00 PM 32.4980 113.3998 198° South  Level Estimated
Thu 03:11:00 PM 32.3825 113.3560 198° South  Level Estimated
Thu 03:12:00 PM 32.2670 113.3122 198° South  Level Estimated
Thu 03:13:00 PM 32.1515 113.2686 198° South  Level Estimated
Thu 03:14:00 PM 32.0359 113.2251 198° South  Level Estimated
Thu 03:15:00 PM 31.9204 113.1817 198° South  Level Estimated
Thu 03:16:00 PM 31.8049 113.1384 198° South  Level Estimated
Thu 03:17:00 PM 31.6893 113.0953 198° South  Level Estimated
Thu 03:18:00 PM 31.5737 113.0522 198° South  Level Estimated
Thu 03:19:00 PM 31.4581 113.0092 198° South  Level Estimated
Thu 03:20:00 PM 31.3425 112.9664 198° South  Level Estimated
Thu 03:21:00 PM 31.2269 112.9236 198° South  Level Estimated
Thu 03:22:00 PM 31.1112 112.8810 198° South  Level Estimated
Thu 03:23:00 PM 30.9956 112.8384 198° South  Level Estimated
Thu 03:24:00 PM 30.8799 112.7960 197° South  Level Estimated
Thu 03:25:00 PM 30.7642 112.7536 197° South  Level Estimated
Thu 03:26:00 PM 30.6485 112.7114 197° South  Level Estimated
Thu 03:27:00 PM 30.5328 112.6693 197° South  Level Estimated
Thu 03:28:00 PM 30.4171 112.6272 197° South  Level Estimated
Thu 03:29:00 PM 30.3014 112.5853 197° South  Level Estimated
Thu 03:30:00 PM 30.1856 112.5434 197° South  Level Estimated
Thu 03:31:00 PM 30.0698 112.5017 197° South  Level Estimated
Thu 03:32:00 PM 29.9541 112.4601 197° South  Level Estimated
Thu 03:33:00 PM 29.8383 112.4185 197° South  Level Estimated
Thu 03:34:00 PM 29.7225 112.3771 197° South  Level Estimated
Thu 03:35:00 PM 29.6067 112.3357 197° South  Level Estimated
Thu 03:36:00 PM 29.4908 112.2944 197° South  Level Estimated
Thu 03:37:00 PM 29.3750 112.2533 197° South  Level Estimated
Thu 03:38:00 PM 29.2591 112.2122 197° South  Level Estimated
Thu 03:39:00 PM 29.1433 112.1712 197° South  Level Estimated
Thu 03:40:00 PM 29.0274 112.1303 197° South  Level Estimated
Thu 03:41:00 PM 28.9115 112.0895 197° South  Level Estimated
Thu 03:42:00 PM 28.7956 112.0488 197° South  Level Estimated
Thu 03:43:00 PM 28.6797 112.0082 197° South  Level Estimated
Thu 03:44:00 PM 28.5638 111.9677 197° South  Level Estimated
Thu 03:45:00 PM 28.4478 111.9273 197° South  Level Estimated
Thu 03:46:00 PM 28.3319 111.8869 197° South  Level Estimated
Thu 03:47:00 PM 28.2159 111.8467 197° South  Level Estimated
Thu 03:48:00 PM 28.0999 111.8065 197° South  Level Estimated
Thu 03:49:00 PM 27.9839 111.7664 197° South  Level Estimated
Thu 03:50:00 PM 27.8679 111.7264 197° South  Level Estimated
Thu 03:51:00 PM 27.7519 111.6865 197° South  Level Estimated
Thu 03:52:00 PM 27.6359 111.6467 197° South  Level Estimated
Thu 03:53:00 PM 27.5199 111.6069 197° South  Level Estimated
Thu 03:54:00 PM 27.4038 111.5673 197° South  Level Estimated
Thu 03:55:00 PM 27.2878 111.5277 197° South  Level Estimated
Thu 03:56:00 PM 27.1717 111.4882 197° South  Level Estimated
Thu 03:57:00 PM 27.0556 111.4488 197° South  Level Estimated
Thu 03:58:00 PM 26.9396 111.4095 197° South  Level Estimated
Thu 03:59:00 PM 26.8235 111.3702 197° South  Level Estimated
Thu 04:00:00 PM 26.7073 111.3310 197° South  Level Estimated
Thu 04:01:00 PM 26.5912 111.2919 197° South  Level Estimated
Thu 04:02:00 PM 26.4751 111.2529 197° South  Level Estimated
Thu 04:03:00 PM 26.3589 111.2140 197° South  Level Estimated
Thu 04:04:00 PM 26.2428 111.1752 197° South  Level Estimated
Thu 04:05:00 PM 26.1266 111.1364 197° South  Level Estimated
Thu 04:06:00 PM 26.0105 111.0977 197° South  Level Estimated
Thu 04:07:00 PM 25.8943 111.0591 197° South  Level Estimated
Thu 04:08:00 PM 25.7781 111.0205 197° South  Level Estimated
Thu 04:09:00 PM 25.6619 110.9820 197° South  Level Estimated
Thu 04:10:00 PM 25.5457 110.9436 197° South  Level Estimated
Thu 04:11:00 PM 25.4294 110.9053 197° South  Level Estimated
Thu 04:12:00 PM 25.3132 110.8671 197° South  Level Estimated
Thu 04:13:00 PM 25.1970 110.8289 197° South  Level Estimated
Thu 04:14:00 PM 25.0807 110.7908 197° South  Level Estimated
Thu 04:15:00 PM 24.9645 110.7528 197° South  Level Estimated
Thu 04:16:00 PM 24.8482 110.7148 197° South  Level Estimated
Thu 04:17:00 PM 24.7319 110.6769 196° South  Level Estimated
Thu 04:18:00 PM 24.6156 110.6391 196° South  Level Estimated
Thu 04:19:00 PM 24.4993 110.6014 196° South  Level Estimated
Thu 04:20:00 PM 24.3830 110.5637 196° South  Level Estimated
Thu 04:21:00 PM 24.2667 110.5261 196° South  Level Estimated
Thu 04:22:00 PM 24.1503 110.4886 196° South  Level Estimated
Thu 04:23:00 PM 24.0340 110.4511 196° South  Level Estimated
Thu 04:24:00 PM 23.9177 110.4137 196° South  Level Estimated
Thu 04:25:00 PM 23.8013 110.3764 196° South  Level Estimated
Thu 04:25:25 PM 22.4543 113.8790 187° South 470 541 38,100  Level FlightAware ADS-B
Thu 04:26:00 PM 22.3819 113.8696 187° South 471 542 38,100 75 Level FlightAware ADS-B
Thu 04:26:45 PM 22.2881 113.8521 192° South 471 542 38,200 286 Climbing FlightAware ADS-B
Thu 04:27:03 PM 22.2455 113.8431 191° South 473 544 38,400 600 Climbing FlightAware ADS-B
Thu 04:27:15 PM 22.2235 113.8384 192° South 473 544 38,500 750 Climbing FlightAware ADS-B
Thu 04:27:43 PM 22.1568 113.8245 191° South 473 544 38,900 800 Climbing FlightAware ADS-B
Thu 04:27:45 PM 22.1533 113.8238 191° South 472 543 38,900 600 Level FlightAware ADS-B
Thu 04:28:23 PM 22.0731 113.8071 191° South 475 547 39,300 667 Climbing FlightAware ADS-B
Thu 04:28:30 PM 22.0584 113.8041 191° South 475 547 39,400 632 Climbing FlightAware ADS-B
Thu 04:29:01 PM 21.9908 113.7900 191° South 476 548 39,700 545 Climbing FlightAware ADS-B
Thu 04:29:03 PM 21.9877 113.7894 191° South 477 549 39,700 600 Level FlightAware ADS-B
Thu 04:29:31 PM 21.9261 113.7766 192° South 476 548 40,000 450 Climbing FlightAware ADS-B
Thu 04:29:43 PM 21.8987 113.7710 191° South 478 550 40,000  Level FlightAware ADS-B
Thu 04:30:15 PM 21.8313 113.7570 191° South 477 549 40,000  Level FlightAware ADS-B
Thu 04:30:22 PM 21.8131 113.7532 191° South 477 549 40,000  Level FlightAware ADS-B
Thu 04:31:01 PM 21.7318 113.7364 191° South 473 544 40,000  Level FlightAware ADS-B
Thu 04:31:03 PM 21.7266 113.7353 191° South 474 545 40,000  Level FlightAware ADS-B
Thu 04:31:43 PM 21.6413 113.7176 191° South 474 545 40,000  Level FlightAware ADS-B
Thu 04:31:47 PM 21.6478 113.7189 191° South 473 544 40,000  Level FlightAware ADS-B
Thu 04:32:24 PM 21.5511 113.6990 191° South 475 547 40,000  Level FlightAware ADS-B
Thu 04:33:03 PM 21.4668 113.6816 191° South 476 548 40,000  Level FlightAware ADS-B
Thu 04:33:44 PM 21.3816 113.6640 191° South 475 547 40,000  Level FlightAware ADS-B
Thu 04:34:24 PM 21.2925 113.6456 191° South 476 548 40,000  Level FlightAware ADS-B
Thu 04:35:03 PM 21.2077 113.6281 191° South 474 545 40,000  Level FlightAware ADS-B
Thu 04:35:44 PM 21.1217 113.6106 191° South 475 547 40,000  Level FlightAware ADS-B
Thu 04:36:24 PM 21.0316 113.5922 191° South 476 548 40,000  Level FlightAware ADS-B
Thu 04:37:02 PM 20.9489 113.5753 191° South 476 548 40,000  Level FlightAware ADS-B
Thu 04:37:57 PM 20.8298 113.5508 191° South 477 549 40,000  Level FlightAware ADS-B
Thu 04:38:43 PM 20.7309 113.5306 191° South 476 548 40,000  Level FlightAware ADS-B
Thu 04:40:27 PM 20.5060 113.4847 191° South 474 545 40,000  Level FlightAware ADS-B
Thu 04:41:22 PM 20.3849 113.4602 191° South 475 547 40,000  Level FlightAware ADS-B
Thu 04:42:24 PM 20.2516 113.4331 191° South 478 550 40,000  Level FlightAware ADS-B
Thu 04:43:02 PM 20.1680 113.4162 191° South 480 552 40,000  Level FlightAware ADS-B
Thu 04:43:42 PM 20.0806 113.3984 191° South 480 552 40,000  Level FlightAware ADS-B
Thu 04:44:44 PM 19.9709 113.3763 191° South 479 551 40,000  Level FlightAware ADS-B
Thu 04:46:46 PM 19.6792 113.3175 191° South 480 552 40,000  Level FlightAware ADS-B
Thu 04:47:00 PM 19.7268 113.2419 207° Southwest  Level Estimated
Thu 04:49:00 PM 19.4391 113.1844 208° Southwest  Level Estimated
Thu 04:50:00 PM 19.3316 113.1249 208° Southwest  Level Estimated
Thu 04:51:00 PM 19.2241 113.0655 208° Southwest  Level Estimated
Thu 04:52:00 PM 19.1166 113.0062 208° Southwest  Level Estimated
Thu 04:53:00 PM 19.0090 112.9470 208° Southwest  Level Estimated
Thu 04:54:00 PM 18.9014 112.8878 207° Southwest  Level Estimated
Thu 04:55:00 PM 18.7938 112.8288 207° Southwest  Level Estimated
Thu 04:56:00 PM 18.6862 112.7698 207° Southwest  Level Estimated
Thu 04:57:00 PM 18.5785 112.7108 207° Southwest  Level Estimated
Thu 04:58:00 PM 18.4709 112.6520 207° Southwest  Level Estimated
Thu 04:59:00 PM 18.3632 112.5932 207° Southwest  Level Estimated
Thu 05:00:00 PM 18.2555 112.5345 207° Southwest  Level Estimated
Thu 05:01:00 PM 18.1478 112.4759 207° Southwest  Level Estimated
Thu 05:02:00 PM 18.0401 112.4173 207° Southwest  Level Estimated
Thu 05:03:00 PM 17.9323 112.3588 207° Southwest  Level Estimated
Thu 05:04:00 PM 17.8245 112.3004 207° Southwest  Level Estimated
Thu 05:05:00 PM 17.7167 112.2420 207° Southwest  Level Estimated
Thu 05:06:00 PM 17.6089 112.1838 207° Southwest  Level Estimated
Thu 05:07:00 PM 17.5011 112.1256 207° Southwest  Level Estimated
Thu 05:08:00 PM 17.3933 112.0674 207° Southwest  Level Estimated
Thu 05:09:00 PM 17.2854 112.0094 207° Southwest  Level Estimated
Thu 05:10:00 PM 17.1776 111.9513 207° Southwest  Level Estimated
Thu 05:11:00 PM 17.0697 111.8934 207° Southwest  Level Estimated
Thu 05:12:00 PM 16.9618 111.8355 207° Southwest  Level Estimated
Thu 05:13:00 PM 16.8539 111.7777 207° Southwest  Level Estimated
Thu 05:14:00 PM 16.7459 111.7200 207° Southwest  Level Estimated
Thu 05:15:00 PM 16.6380 111.6624 207° Southwest  Level Estimated
Thu 05:16:00 PM 16.5300 111.6047 207° Southwest  Level Estimated
Thu 05:17:00 PM 16.4221 111.5472 207° Southwest  Level Estimated
Thu 05:18:00 PM 16.3141 111.4897 207° Southwest  Level Estimated
Thu 05:19:00 PM 16.2060 111.4323 207° Southwest  Level Estimated
Thu 05:20:00 PM 16.0980 111.3750 207° Southwest  Level Estimated
Thu 05:21:00 PM 15.9900 111.3177 207° Southwest  Level Estimated
Thu 05:22:00 PM 15.8819 111.2605 207° Southwest  Level Estimated
Thu 05:23:00 PM 15.7738 111.2033 207° Southwest  Level Estimated
Thu 05:24:00 PM 15.6657 111.1462 207° Southwest  Level Estimated
Thu 05:25:00 PM 15.5576 111.0891 207° Southwest  Level Estimated
Thu 05:26:00 PM 15.4495 111.0322 207° Southwest  Level Estimated
Thu 05:27:00 PM 15.3414 110.9752 207° Southwest  Level Estimated
Thu 05:28:00 PM 15.2332 110.9184 207° Southwest  Level Estimated
Thu 05:29:00 PM 15.1251 110.8616 207° Southwest  Level Estimated
Thu 05:30:00 PM 15.0169 110.8048 207° Southwest  Level Estimated
Thu 05:31:00 PM 14.9087 110.7481 207° Southwest  Level Estimated
Thu 05:32:00 PM 14.8005 110.6915 207° Southwest  Level Estimated
Thu 05:33:00 PM 14.6923 110.6349 207° Southwest  Level Estimated
Thu 05:34:00 PM 14.5841 110.5784 207° Southwest  Level Estimated
Thu 05:35:00 PM 14.4758 110.5219 207° Southwest  Level Estimated
Thu 05:36:00 PM 14.3676 110.4655 207° Southwest  Level Estimated
Thu 05:37:00 PM 14.2593 110.4092 207° Southwest  Level Estimated
Thu 05:38:00 PM 14.1510 110.3529 207° Southwest  Level Estimated
Thu 05:39:00 PM 14.0427 110.2966 207° Southwest  Level Estimated
Thu 05:40:00 PM 13.9344 110.2404 207° Southwest  Level Estimated
Thu 05:41:00 PM 13.8261 110.1843 207° Southwest  Level Estimated
Thu 05:42:00 PM 13.7177 110.1282 207° Southwest  Level Estimated
Thu 05:43:00 PM 13.6094 110.0722 207° Southwest  Level Estimated
Thu 05:44:00 PM 13.5010 110.0162 207° Southwest  Level Estimated
Thu 05:45:00 PM 13.3927 109.9602 207° Southwest  Level Estimated
Thu 05:46:00 PM 13.2843 109.9043 207° Southwest  Level Estimated
Thu 05:47:00 PM 13.1759 109.8485 207° Southwest  Level Estimated
Thu 05:48:00 PM 13.0675 109.7927 207° Southwest  Level Estimated
Thu 05:49:00 PM 12.9590 109.7370 207° Southwest  Level Estimated
Thu 05:50:00 PM 12.8506 109.6813 207° Southwest  Level Estimated
Thu 05:51:00 PM 12.7422 109.6256 207° Southwest  Level Estimated
Thu 05:52:00 PM 12.6337 109.5701 207° Southwest  Level Estimated
Thu 05:53:00 PM 12.5252 109.5145 207° Southwest  Level Estimated
Thu 05:54:00 PM 12.4168 109.4590 207° Southwest  Level Estimated
Thu 05:55:00 PM 12.3083 109.4035 207° Southwest  Level Estimated
Thu 05:56:00 PM 12.1998 109.3482 207° Southwest  Level Estimated
Thu 05:57:00 PM 12.0913 109.2928 207° Southwest  Level Estimated
Thu 05:58:00 PM 11.9827 109.2375 207° Southwest  Level Estimated
Thu 05:59:00 PM 11.8742 109.1822 206° Southwest  Level Estimated
Thu 05:59:43 PM 11.2441 108.2699 212° Southwest 498 573 40,000  Level FlightAware ADS-B (VVTS / SGN)
Thu 06:00:00 PM 11.7656 109.1270 206° Southwest  Level Estimated
Thu 06:00:12 PM 11.1980 108.2410 212° Southwest 499 574 40,000  Level FlightAware ADS-B (VVTS / SGN)
Thu 06:00:34 PM 11.1653 108.2205 212° Southwest 499 574 40,000  Level FlightAware ADS-B (VVTS / SGN)
Thu 06:01:04 PM 11.0917 108.1744 212° Southwest 496 571 40,000  Level FlightAware ADS-B (VVTS / SGN)
Thu 06:03:54 PM 10.7611 107.9614 212° Southwest 496 571 40,000  Level FlightAware ADS-B (VVTS / SGN)
Thu 06:04:35 PM 10.6780 107.9062 214° Southwest 493 567 40,000  Level FlightAware ADS-B (VVTS / SGN)
Thu 06:04:52 PM 10.6588 107.8935 214° Southwest 493 567 40,000  Level FlightAware ADS-B (VVTS / SGN)
Thu 06:08:34 PM 10.2211 107.6040 214° Southwest 493 567 40,000  Level FlightAware ADS-B (VVTS / SGN)
Thu 06:08:43 PM 10.2118 107.5979 214° Southwest 495 570 40,000  Level FlightAware ADS-B (VVTS / SGN)
Thu 06:09:32 PM 10.1179 107.5359 214° Southwest 494 568 40,000  Level FlightAware ADS-B (VVTS / SGN)
Thu 06:10:07 PM 10.0580 107.4964 214° Southwest 493 567 40,000  Level FlightAware ADS-B (VVTS / SGN)
Thu 06:10:36 PM 10.0419 107.4858 214° Southwest 493 567 40,000  Level FlightAware ADS-B (VVTS / SGN)
Thu 06:11:08 PM 9.9264 107.4097 214° Southwest 494 568 40,000  Level FlightAware ADS-B (VVTS / SGN)
Thu 06:12:36 PM 9.7567 107.2979 214° Southwest 495 570 40,000  Level FlightAware ADS-B (VVTS / SGN)
Thu 06:13:05 PM 9.7132 107.2692 214° Southwest 496 571 40,000  Level FlightAware ADS-B (VVTS / SGN)
Thu 06:13:33 PM 9.6476 107.2261 214° Southwest 496 571 40,000  Level FlightAware ADS-B (VVTS / SGN)
Thu 06:14:05 PM 9.5879 107.1869 214° Southwest 495 570 40,000  Level FlightAware ADS-B (VVTS / SGN)
Thu 06:14:36 PM 9.5292 107.1483 214° Southwest 497 572 40,000  Level FlightAware ADS-B (VVTS / SGN)
Thu 06:14:55 PM 9.4909 107.1231 214° Southwest 498 573 40,000  Level FlightAware ADS-B (VVTS / SGN)
Thu 06:15:36 PM 9.4153 107.0733 214° Southwest 499 574 40,000  Level FlightAware ADS-B (VVTS / SGN)
Thu 06:18:00 PM 9.1436 106.9675 201° Southwest  Level Estimated
Thu 06:19:00 PM 9.0304 106.9235 201° Southwest  Level Estimated
Thu 06:20:00 PM 8.9172 106.8795 201° Southwest  Level Estimated
Thu 06:21:00 PM 8.8040 106.8355 201° Southwest  Level Estimated
Thu 06:22:00 PM 8.6908 106.7916 201° Southwest  Level Estimated
Thu 06:23:00 PM 8.5776 106.7476 201° Southwest  Level Estimated
Thu 06:24:00 PM 8.4643 106.7038 201° Southwest  Level Estimated
Thu 06:25:00 PM 8.3511 106.6599 201° Southwest  Level Estimated
Thu 06:26:00 PM 8.2379 106.6160 201° Southwest  Level Estimated
Thu 06:27:00 PM 8.1247 106.5722 201° Southwest  Level Estimated
Thu 06:28:00 PM 8.0114 106.5284 201° Southwest  Level Estimated
Thu 06:29:00 PM 7.8981 106.4846 201° Southwest  Level Estimated
Thu 06:30:00 PM 7.7849 106.4409 201° Southwest  Level Estimated
Thu 06:31:00 PM 7.6716 106.3972 201° Southwest  Level Estimated
Thu 06:32:00 PM 7.5584 106.3535 201° Southwest  Level Estimated
Thu 06:33:00 PM 7.4451 106.3098 201° Southwest  Level Estimated
Thu 06:34:00 PM 7.3318 106.2661 201° Southwest  Level Estimated
Thu 06:35:00 PM 7.2186 106.2225 201° Southwest  Level Estimated
Thu 06:36:00 PM 7.1053 106.1789 201° Southwest  Level Estimated
Thu 06:37:00 PM 6.9920 106.1353 201° Southwest  Level Estimated
Thu 06:38:00 PM 6.8787 106.0917 201° Southwest  Level Estimated
Thu 06:39:00 PM 6.7654 106.0482 201° Southwest  Level Estimated
Thu 06:40:00 PM 6.6521 106.0047 201° Southwest  Level Estimated
Thu 06:41:00 PM 6.5388 105.9612 201° Southwest  Level Estimated
Thu 06:42:00 PM 6.4255 105.9177 201° Southwest  Level Estimated
Thu 06:43:00 PM 6.3122 105.8742 201° Southwest  Level Estimated
Thu 06:44:00 PM 6.1989 105.8307 201° Southwest  Level Estimated
Thu 06:45:00 PM 6.0856 105.7873 201° Southwest  Level Estimated
Thu 06:46:00 PM 5.9723 105.7439 201° Southwest  Level Estimated
Thu 06:47:00 PM 5.8590 105.7005 201° Southwest  Level Estimated
Thu 06:48:00 PM 5.7456 105.6571 201° Southwest  Level Estimated
Thu 06:49:00 PM 5.6323 105.6138 201° Southwest  Level Estimated
Thu 06:50:00 PM 5.5190 105.5704 201° Southwest  Level Estimated
Thu 06:51:00 PM 5.4057 105.5271 201° Southwest  Level Estimated
Thu 06:52:00 PM 5.2923 105.4838 201° Southwest  Level Estimated
Thu 06:53:00 PM 5.1790 105.4405 201° Southwest  Level Estimated
Thu 06:54:00 PM 5.0656 105.3972 201° Southwest  Level Estimated
Thu 06:55:00 PM 4.9523 105.3540 201° Southwest  Level Estimated
Thu 06:56:00 PM 4.8390 105.3107 201° Southwest  Level Estimated
Thu 06:57:00 PM 4.7256 105.2675 201° Southwest  Level Estimated
Thu 06:58:00 PM 4.6122 105.2243 201° Southwest  Level Estimated
Thu 06:59:00 PM 4.4989 105.1811 201° Southwest  Level Estimated
Thu 07:00:00 PM 4.3855 105.1379 201° Southwest  Level Estimated
Thu 07:01:00 PM 4.2722 105.0947 201° Southwest  Level Estimated
Thu 07:02:00 PM 4.1588 105.0515 201° Southwest  Level Estimated
Thu 07:03:00 PM 4.0454 105.0083 201° Southwest  Level Estimated
Thu 07:04:00 PM 3.9321 104.9652 201° Southwest  Level Estimated
Thu 07:05:00 PM 3.8187 104.9221 201° Southwest  Level Estimated
Thu 07:06:00 PM 3.7053 104.8790 201° Southwest  Level Estimated
Thu 07:07:00 PM 3.5919 104.8359 201° Southwest  Level Estimated
Thu 07:08:00 PM 3.4786 104.7928 201° Southwest  Level Estimated
Thu 07:09:00 PM 3.3652 104.7497 201° Southwest  Level Estimated
Thu 07:10:00 PM 3.2518 104.7066 201° Southwest  Level Estimated
Thu 07:11:00 PM 3.1384 104.6635 201° Southwest  Level Estimated
Thu 07:12:00 PM 3.0250 104.6205 201° Southwest  Level Estimated
Thu 07:13:00 PM 2.9117 104.5774 201° Southwest  Level Estimated
Thu 07:14:00 PM 2.7983 104.5344 201° Southwest  Level Estimated
Thu 07:15:00 PM 2.6849 104.4913 201° Southwest  Level Estimated
Thu 07:16:00 PM 2.5715 104.4483 201° Southwest  Level Estimated
Thu 07:17:00 PM 2.4581 104.4053 201° Southwest  Level Estimated
Thu 07:18:00 PM 2.3447 104.3623 201° Southwest  Level Estimated
Thu 07:19:00 PM 2.2313 104.3193 201° Southwest  Level Estimated
Thu 07:20:00 PM 2.1179 104.2763 201° Southwest  Level Estimated
Thu 07:21:00 PM 2.0045 104.2333 201° Southwest  Level Estimated
Thu 07:22:00 PM 1.8911 104.1903 201° Southwest  Level Estimated
Thu 07:23:00 PM 1.7777 104.1473 201° Southwest  Level Estimated
Thu 07:24:00 PM 1.6643 104.1044 201° Southwest  Level Estimated
Thu 07:25:00 PM 1.5509 104.0614 201° Southwest  Level Estimated
Thu 07:26:00 PM 1.4375 104.0184 201° Southwest  Level Estimated
Thu 07:27:00 PM 1.3557 103.9875 201° Southwest  Level Estimated
Thu 07:28:00 PM 1.3557 103.9875 North  Level Estimated
Thu 07:29:00 PM 1.3557 103.9875 North  Level Estimated
Thu 07:30:00 PM 1.3557 103.9875 North  Level Estimated
Thu 07:31:00 PM 1.3557 103.9875 North  Level Estimated
Thu 07:32:00 PM 1.3557 103.9875 North  Level Estimated
Thu 07:33:00 PM 1.3557 103.9875 North  Level Estimated
Thu 07:34:00 PM 1.3557 103.9875 North  Level Estimated
Thu 07:35:00 PM 1.3557 103.9875 North  Level Estimated
Thu 07:36:00 PM 1.3557 103.9875 North  Level Estimated
Thu 07:37:00 PM 1.3557 103.9875 North  Level Estimated
Thu 07:38:00 PM 1.3557 103.9875 North  Level Estimated
Thu 07:39:00 PM 1.3557 103.9875 North  Level Estimated
Thu 07:40:00 PM 1.3557 103.9875 North  Level Estimated
Thu 07:41:00 PM 1.3557 103.9875 North  Level Estimated
Thu 07:42:00 PM 1.3557 103.9875 North  Level Estimated
Thu 07:43:00 PM 1.3557 103.9875 North  Level Estimated
Thu 07:44:00 PM 1.3557 103.9875 North  Level Estimated
Thu 07:45:00 PM 1.3557 103.9875 North  Level Estimated
Thu 07:46:00 PM 1.3557 103.9875 North  Level Estimated

Login

Don't have an account? Register now (free) for customized features, flight alerts, and more!